Time;durP1;ratioP1;P1;durP2;ratioP2;P2;SDS_P1;SDS_P2;PMS_P1;PMS_P2;Temp;Humidity;BMP_temperature;BMP_pressure;BME280_temperature;BME280_humidity;BME280_pressure;Samples;Min_cycle;Max_cycle;Signal;HPM_P1;HPM_P2
2022/03/07 00:03:00;;;;;;;6.35;4.13;;;3.60;50.30;;;;;;10010434;28;20037;-70
2022/03/07 00:07:51;;;;;;;6.28;3.20;;;3.60;50.40;;;;;;10002295;28;20121;-67
2022/03/07 00:12:41;;;;;;;7.90;3.75;;;3.60;51.10;;;;;;10003612;28;20046;-71
2022/03/07 00:17:32;;;;;;;6.30;3.75;;;3.60;50.80;;;;;;10010846;28;20477;-61
2022/03/07 00:22:23;;;;;;;8.35;3.90;;;3.60;51.40;;;;;;10009562;28;20032;-68
2022/03/07 00:27:13;;;;;;;6.18;4.07;;;3.60;51.50;;;;;;9992186;28;20021;-64
2022/03/07 00:32:04;;;;;;;5.63;3.83;;;3.60;51.60;;;;;;9998581;28;20037;-61
2022/03/07 00:36:55;;;;;;;5.20;3.65;;;3.60;51.50;;;;;;10012323;28;20080;-64
2022/03/07 00:41:46;;;;;;;5.40;3.03;;;3.60;52.20;;;;;;10016029;28;20022;-61
2022/03/07 00:46:36;;;;;;;6.80;4.10;;;3.50;52.20;;;;;;10016829;28;20085;-60
2022/03/07 00:51:27;;;;;;;6.35;3.55;;;3.40;52.20;;;;;;10015000;28;20037;-68
2022/03/07 00:56:18;;;;;;;4.82;3.35;;;3.50;52.50;;;;;;10014869;28;20049;-65
2022/03/07 01:01:09;;;;;;;6.13;3.05;;;3.40;52.50;;;;;;10014580;28;20389;-63
2022/03/07 01:05:59;;;;;;;5.32;3.45;;;3.40;52.80;;;;;;10015314;28;20022;-65
2022/03/07 01:10:50;;;;;;;6.13;3.50;;;3.40;53.70;;;;;;10004311;28;20403;-67
2022/03/07 01:15:41;;;;;;;4.32;3.03;;;3.40;53.10;;;;;;10010707;28;20046;-64
2022/03/07 01:20:32;;;;;;;5.65;3.00;;;3.30;53.90;;;;;;10006558;28;20538;-65
2022/03/07 01:25:23;;;;;;;6.15;3.75;;;3.30;53.60;;;;;;10007843;28;20044;-67
2022/03/07 01:30:13;;;;;;;5.28;3.65;;;3.30;54.20;;;;;;10015009;28;20029;-65
2022/03/07 01:35:06;;;;;;;5.53;3.15;;;3.20;53.60;;;;;;10015853;28;20085;-63
2022/03/07 01:39:56;;;;;;;5.32;3.45;;;3.20;53.80;;;;;;10012357;28;20022;-66
2022/03/07 01:44:47;;;;;;;6.32;3.33;;;3.20;53.80;;;;;;10019798;28;20030;-66
2022/03/07 01:49:38;;;;;;;5.25;3.72;;;3.20;53.50;;;;;;10016174;28;20172;-64
2022/03/07 01:54:28;;;;;;;7.55;3.55;;;3.10;54.30;;;;;;10006628;28;20022;-68
2022/03/07 01:59:22;;;;;;;6.18;3.63;;;3.10;54.10;;;;;;10013200;28;20037;-72
2022/03/07 02:04:13;;;;;;;6.15;3.15;;;3.10;55.10;;;;;;10011241;28;20037;-63
2022/03/07 02:09:05;;;;;;;5.47;3.10;;;3.10;55.50;;;;;;10012789;28;20056;-64
2022/03/07 02:13:56;;;;;;;4.30;3.00;;;3.10;55.30;;;;;;10010194;28;20327;-62
2022/03/07 02:18:47;;;;;;;4.72;3.28;;;3.00;55.30;;;;;;10012362;28;20205;-63
2022/03/07 02:23:38;;;;;;;7.63;3.83;;;3.00;55.50;;;;;;10006570;28;20022;-69
2022/03/07 02:28:29;;;;;;;4.78;3.20;;;3.00;55.10;;;;;;10013178;28;20500;-63
2022/03/07 02:33:19;;;;;;;8.63;3.70;;;2.90;55.60;;;;;;10008700;28;20042;-63
2022/03/07 02:38:16;;;;;;;4.53;3.40;;;2.90;56.40;;;;;;10011128;28;20034;-71
2022/03/07 02:43:07;;;;;;;5.47;3.75;;;2.90;56.30;;;;;;10008191;28;20049;-64
2022/03/07 02:47:57;;;;;;;4.68;3.50;;;2.90;56.20;;;;;;9997196;28;20053;-70
2022/03/07 02:52:48;;;;;;;9.95;4.13;;;2.80;56.90;;;;;;10008818;28;20420;-61
2022/03/07 02:57:39;;;;;;;5.22;2.95;;;2.80;57.10;;;;;;10010208;28;20033;-63
2022/03/07 03:02:29;;;;;;;8.88;3.75;;;2.70;56.90;;;;;;10015304;28;20026;-62
2022/03/07 03:07:20;;;;;;;5.18;3.50;;;2.70;56.80;;;;;;10010588;28;20512;-67
2022/03/07 03:12:11;;;;;;;5.03;3.67;;;2.70;57.20;;;;;;10003874;28;20060;-64
2022/03/07 03:17:02;;;;;;;6.07;3.20;;;2.70;57.00;;;;;;10007999;28;20080;-66
2022/03/07 03:21:52;;;;;;;4.97;3.58;;;2.70;57.70;;;;;;9997760;28;20034;-62
2022/03/07 03:26:43;;;;;;;5.78;3.15;;;2.70;57.40;;;;;;10003151;28;20425;-61
2022/03/07 03:31:34;;;;;;;5.97;3.47;;;2.60;58.40;;;;;;9998845;28;20026;-62
2022/03/07 03:36:25;;;;;;;6.15;2.88;;;2.50;58.20;;;;;;10007062;28;20145;-67
2022/03/07 03:41:15;;;;;;;7.90;5.00;;;2.50;58.50;;;;;;10007387;28;20030;-67
2022/03/07 03:46:06;;;;;;;8.15;3.55;;;2.50;58.50;;;;;;10009625;28;20084;-68
2022/03/07 03:50:57;;;;;;;5.05;2.95;;;2.50;59.10;;;;;;10006376;28;20268;-66
2022/03/07 03:55:47;;;;;;;5.85;3.15;;;2.40;58.90;;;;;;10007411;28;20045;-68
2022/03/07 04:00:38;;;;;;;4.35;2.95;;;2.50;58.50;;;;;;10004129;28;20022;-67
2022/03/07 04:05:29;;;;;;;5.40;3.28;;;2.40;59.10;;;;;;9994431;28;20030;-65
2022/03/07 04:10:20;;;;;;;6.03;3.03;;;2.30;59.10;;;;;;10009795;28;20551;-71
2022/03/07 04:15:12;;;;;;;5.85;2.83;;;2.30;59.60;;;;;;10014158;28;20042;-68
2022/03/07 04:20:03;;;;;;;4.57;2.70;;;2.30;59.40;;;;;;10013711;28;20054;-64
2022/03/07 04:24:54;;;;;;;6.30;3.20;;;2.30;59.30;;;;;;10015610;28;20030;-72
2022/03/07 04:29:44;;;;;;;6.88;3.20;;;2.20;59.10;;;;;;10019183;28;21900;-69
2022/03/07 04:34:35;;;;;;;6.60;3.53;;;2.20;59.30;;;;;;10019868;28;20397;-66
2022/03/07 04:39:27;;;;;;;4.75;2.88;;;2.20;58.70;;;;;;10014551;28;20124;-71
2022/03/07 04:44:18;;;;;;;3.38;2.70;;;2.20;59.50;;;;;;10009757;28;20644;-68
2022/03/07 04:49:11;;;;;;;3.42;2.38;;;2.10;59.80;;;;;;10010229;28;20303;-62
2022/03/07 04:54:01;;;;;;;5.10;2.78;;;2.10;59.30;;;;;;10015558;28;20027;-63
2022/03/07 04:58:52;;;;;;;5.68;3.22;;;2.10;59.40;;;;;;10010157;28;20033;-64
2022/03/07 05:03:43;;;;;;;6.10;4.68;;;2.00;59.50;;;;;;10017443;28;20026;-65
2022/03/07 05:08:33;;;;;;;4.13;2.80;;;2.00;59.80;;;;;;10011233;28;20026;-64
2022/03/07 05:13:24;;;;;;;4.30;2.42;;;1.90;59.90;;;;;;10001771;28;20500;-67
2022/03/07 05:18:16;;;;;;;6.68;2.83;;;1.90;60.00;;;;;;10026948;28;20041;-67
2022/03/07 05:23:06;;;;;;;5.75;2.50;;;1.90;59.70;;;;;;10015547;28;20110;-72
2022/03/07 05:27:57;;;;;;;5.22;3.17;;;1.80;60.10;;;;;;10011051;28;20109;-72
2022/03/07 05:32:51;;;;;;;6.05;3.45;;;1.80;60.20;;;;;;10006285;28;20018;-72
2022/03/07 05:37:42;;;;;;;3.88;2.75;;;1.70;60.20;;;;;;10013280;28;20121;-66
2022/03/07 05:42:37;;;;;;;4.65;3.00;;;1.70;60.30;;;;;;10001400;28;20499;-67
2022/03/07 05:47:28;;;;;;;4.05;3.15;;;1.60;60.20;;;;;;10013613;28;20947;-69
2022/03/07 05:52:18;;;;;;;5.65;2.95;;;1.50;60.20;;;;;;10011216;28;20129;-72
2022/03/07 05:57:09;;;;;;;6.57;2.63;;;1.50;60.40;;;;;;10012156;28;20049;-72
2022/03/07 06:02:00;;;;;;;6.32;3.00;;;1.50;60.80;;;;;;10009960;28;20109;-67
2022/03/07 06:06:51;;;;;;;3.75;2.83;;;1.50;60.10;;;;;;10006309;28;20033;-70
2022/03/07 06:11:41;;;;;;;5.88;2.75;;;1.50;60.10;;;;;;10010540;28;20040;-72
2022/03/07 06:16:32;;;;;;;4.30;2.53;;;1.50;59.90;;;;;;10011151;28;20120;-72
2022/03/07 06:21:22;;;;;;;4.05;2.65;;;1.50;60.40;;;;;;10010659;28;20029;-68
2022/03/07 06:26:13;;;;;;;7.70;2.88;;;1.40;60.30;;;;;;10028500;28;20026;-72
2022/03/07 06:31:04;;;;;;;5.50;3.15;;;1.40;60.40;;;;;;10011747;28;20151;-66
2022/03/07 06:35:55;;;;;;;5.18;3.13;;;1.40;60.90;;;;;;10009132;28;20551;-67
2022/03/07 06:41:01;;;;;;;8.65;2.88;;;1.40;61.20;;;;;;10009230;28;20459;-68
2022/03/07 06:45:54;;;;;;;4.75;2.83;;;1.40;61.30;;;;;;10002926;28;20125;-65
2022/03/07 06:50:45;;;;;;;4.72;2.97;;;1.30;62.40;;;;;;10007222;28;20025;-67
2022/03/07 06:55:35;;;;;;;4.18;2.75;;;1.40;62.30;;;;;;10012076;28;20034;-68
2022/03/07 07:00:26;;;;;;;4.32;2.55;;;1.40;62.50;;;;;;10008669;28;20022;-68
2022/03/07 07:05:17;;;;;;;3.72;2.45;;;1.50;62.70;;;;;;10009299;28;20037;-70
2022/03/07 07:10:09;;;;;;;5.55;2.85;;;1.40;62.60;;;;;;10011427;28;20459;-67
2022/03/07 07:14:59;;;;;;;8.88;3.17;;;1.50;63.00;;;;;;10000268;28;20042;-67
2022/03/07 07:19:50;;;;;;;4.07;2.95;;;1.50;63.20;;;;;;10009877;28;20400;-68
2022/03/07 07:24:42;;;;;;;5.30;2.92;;;1.60;63.30;;;;;;10006196;28;20030;-71
2022/03/07 07:29:32;;;;;;;3.97;2.88;;;1.70;62.70;;;;;;10007946;28;20030;-60
2022/03/07 07:34:23;;;;;;;4.32;2.78;;;1.80;62.80;;;;;;10008545;28;20038;-70
2022/03/07 07:39:15;;;;;;;4.00;2.58;;;1.80;62.90;;;;;;10008682;28;20435;-73
2022/03/07 07:44:06;;;;;;;4.43;2.40;;;1.90;63.20;;;;;;10006487;28;20030;-70
2022/03/07 07:48:57;;;;;;;4.97;3.50;;;2.00;63.40;;;;;;10012896;28;20022;-69
2022/03/07 07:53:47;;;;;;;6.55;3.20;;;2.10;63.20;;;;;;10009140;28;20034;-70
2022/03/07 07:58:39;;;;;;;7.18;2.78;;;2.10;62.80;;;;;;10008325;28;20088;-69
2022/03/07 08:03:30;;;;;;;7.15;3.08;;;2.20;63.20;;;;;;10009799;28;20285;-70
2022/03/07 08:08:20;;;;;;;5.60;3.08;;;2.20;62.90;;;;;;10005590;28;20338;-69
2022/03/07 08:13:11;;;;;;;8.73;3.47;;;2.30;63.00;;;;;;10006485;28;20041;-71
2022/03/07 08:18:02;;;;;;;4.00;3.28;;;2.40;62.80;;;;;;10011349;28;20080;-71
2022/03/07 08:22:53;;;;;;;6.25;3.10;;;2.40;63.40;;;;;;10008521;28;20073;-70
2022/03/07 08:27:44;;;;;;;7.45;3.30;;;2.50;62.80;;;;;;10010985;28;20026;-65
2022/03/07 08:32:35;;;;;;;5.35;3.47;;;2.60;62.70;;;;;;10002214;28;20508;-69
2022/03/07 08:37:26;;;;;;;7.25;2.78;;;2.70;62.40;;;;;;10012183;28;20065;-73
2022/03/07 08:42:19;;;;;;;6.55;3.20;;;2.70;62.80;;;;;;10006676;28;20045;-68
2022/03/07 08:47:10;;;;;;;6.80;3.03;;;2.70;62.80;;;;;;9999599;28;20632;-70
2022/03/07 08:52:00;;;;;;;5.38;2.78;;;2.90;62.70;;;;;;10005108;28;20296;-69
2022/03/07 08:56:51;;;;;;;5.20;3.20;;;3.00;62.20;;;;;;10009984;28;20096;-73
2022/03/07 09:01:42;;;;;;;9.73;3.80;;;3.10;62.10;;;;;;10013350;28;20026;-75
2022/03/07 09:06:32;;;;;;;6.03;3.03;;;3.10;62.00;;;;;;10011626;28;20029;-68
2022/03/07 09:11:23;;;;;;;7.43;3.42;;;3.20;62.00;;;;;;10014317;28;20498;-70
2022/03/07 09:16:14;;;;;;;7.50;3.25;;;3.30;61.80;;;;;;10011860;28;20041;-72
2022/03/07 09:21:05;;;;;;;6.32;3.10;;;3.40;61.50;;;;;;9998646;28;20403;-72
2022/03/07 09:25:55;;;;;;;6.28;3.13;;;3.40;61.50;;;;;;10008988;28;20128;-70
2022/03/07 09:30:49;;;;;;;7.22;3.42;;;3.50;61.40;;;;;;9998413;28;20520;-74
2022/03/07 09:35:40;;;;;;;5.70;3.50;;;3.50;61.40;;;;;;10014785;28;20038;-72
2022/03/07 09:40:31;;;;;;;4.90;2.95;;;3.60;61.20;;;;;;10015791;28;20030;-71
2022/03/07 09:45:23;;;;;;;5.13;3.95;;;3.80;60.70;;;;;;10004619;28;20081;-72
2022/03/07 09:50:14;;;;;;;6.80;4.75;;;4.00;60.60;;;;;;10016327;28;20018;-71
2022/03/07 09:55:07;;;;;;;7.60;4.60;;;4.20;60.00;;;;;;10012406;28;20084;-72
2022/03/07 09:59:58;;;;;;;7.47;3.60;;;4.30;59.70;;;;;;10010639;28;20200;-69
2022/03/07 10:04:48;;;;;;;6.78;3.72;;;4.30;59.60;;;;;;10014214;28;20034;-71
2022/03/07 10:09:40;;;;;;;7.40;4.30;;;4.40;59.30;;;;;;10006100;28;20026;-72
2022/03/07 10:14:42;;;;;;;7.10;3.83;;;4.40;59.20;;;;;;10009900;28;20064;-77
2022/03/07 10:19:44;;;;;;;8.65;4.07;;;4.50;58.70;;;;;;10007712;28;20087;-71
2022/03/07 10:24:37;;;;;;;7.55;4.63;;;4.40;58.90;;;;;;10013427;28;20428;-67
2022/03/07 10:29:28;;;;;;;36.20;19.45;;;4.60;58.70;;;;;;9996046;28;20559;-73
2022/03/07 10:34:19;;;;;;;16.77;7.00;;;4.70;57.90;;;;;;9998680;28;20331;-70
2022/03/07 10:39:12;;;;;;;13.13;5.95;;;4.70;57.50;;;;;;10008956;28;20057;-73
2022/03/07 10:44:09;;;;;;;9.05;5.40;;;4.60;57.80;;;;;;10013552;28;20109;-73
2022/03/07 10:49:00;;;;;;;8.93;5.30;;;4.70;57.70;;;;;;10012580;28;20090;-76
2022/03/07 10:53:52;;;;;;;8.02;4.88;;;4.80;57.20;;;;;;10003485;28;20050;-76
2022/03/07 10:58:48;;;;;;;7.70;4.60;;;5.00;57.00;;;;;;9999160;28;20568;-75
2022/03/07 11:03:39;;;;;;;11.55;4.78;;;5.10;56.10;;;;;;10006343;28;20425;-74
2022/03/07 11:08:30;;;;;;;8.30;4.60;;;5.10;56.40;;;;;;9998530;28;20038;-75
2022/03/07 11:13:29;;;;;;;6.95;4.60;;;5.00;55.80;;;;;;10007450;28;20045;-76
2022/03/07 11:18:20;;;;;;;6.00;4.35;;;5.00;55.70;;;;;;10002111;28;20516;-76
2022/03/07 11:23:14;;;;;;;6.60;4.85;;;5.20;55.30;;;;;;10012378;28;20066;-78
2022/03/07 11:28:05;;;;;;;7.78;4.20;;;5.20;55.10;;;;;;10008532;28;20106;-78
2022/03/07 11:32:56;;;;;;;6.50;3.70;;;5.40;54.80;;;;;;10008164;28;20093;-78
2022/03/07 11:37:46;;;;;;;6.85;4.50;;;5.30;54.40;;;;;;9986533;28;20460;-78
2022/03/07 11:42:42;;;;;;;5.90;4.15;;;5.40;54.40;;;;;;10001480;28;20033;-76
2022/03/07 11:47:38;;;;;;;8.43;4.85;;;5.70;54.40;;;;;;10008447;28;20040;-80
2022/03/07 11:52:29;;;;;;;10.32;4.93;;;5.90;53.90;;;;;;10018063;28;20025;-77
2022/03/07 11:57:35;;;;;;;10.15;5.55;;;5.90;53.80;;;;;;10018264;28;20369;-76
2022/03/07 12:02:37;;;;;;;8.63;4.82;;;5.70;53.50;;;;;;10016480;28;20512;-78
2022/03/07 12:07:28;;;;;;;6.57;4.22;;;5.70;53.10;;;;;;10009448;28;20033;-75
2022/03/07 12:12:22;;;;;;;7.07;4.78;;;5.90;53.10;;;;;;10011913;28;20421;-77
2022/03/07 12:17:23;;;;;;;8.30;4.95;;;6.20;52.60;;;;;;10013318;28;20046;-80
2022/03/07 12:22:16;;;;;;;8.52;5.28;;;6.20;51.90;;;;;;10006748;28;20057;-79
2022/03/07 12:27:08;;;;;;;7.22;4.40;;;6.30;52.10;;;;;;10005015;28;20125;-78
2022/03/07 12:32:04;;;;;;;6.82;4.18;;;6.30;51.50;;;;;;10014800;28;20427;-81
2022/03/07 12:37:20;;;;;;;8.90;5.15;;;6.40;51.00;;;;;;10017177;28;20535;-81
2022/03/07 12:42:14;;;;;;;9.73;4.65;;;6.70;51.10;;;;;;10013900;28;20271;-78
2022/03/07 12:47:05;;;;;;;9.48;5.78;;;6.80;50.30;;;;;;10014186;28;20034;-80
2022/03/07 12:51:56;;;;;;;9.20;5.95;;;7.00;50.00;;;;;;10014533;28;20550;-79
2022/03/07 12:56:47;;;;;;;8.75;4.68;;;7.20;50.10;;;;;;10037893;28;20260;-78
2022/03/07 13:01:47;;;;;;;12.05;6.40;;;7.40;50.00;;;;;;10021331;28;20038;-77
2022/03/07 13:06:45;;;;;;;10.70;6.03;;;7.60;49.40;;;;;;10024865;28;20046;-75
2022/03/07 13:11:47;;;;;;;10.07;6.03;;;7.80;49.20;;;;;;10027697;28;20504;-76
2022/03/07 13:16:38;;;;;;;11.40;5.97;;;8.20;48.40;;;;;;10021505;28;20704;-76
2022/03/07 13:21:35;;;;;;;8.63;5.57;;;8.40;49.20;;;;;;10038897;28;20041;-76
2022/03/07 13:26:27;;;;;;;9.27;5.97;;;9.00;50.10;;;;;;10028190;28;20027;-73
2022/03/07 13:31:19;;;;;;;10.48;7.18;;;9.00;50.50;;;;;;10014664;28;20337;-74
2022/03/07 13:36:11;;;;;;;8.77;6.88;;;9.10;49.40;;;;;;10013749;28;20068;-70
2022/03/07 13:41:06;;;;;;;7.22;6.28;;;9.30;50.10;;;;;;10016322;28;20022;-77
2022/03/07 13:45:57;;;;;;;9.07;6.38;;;9.60;49.10;;;;;;10020337;28;20034;-69
2022/03/07 13:50:51;;;;;;;9.15;7.60;;;10.00;48.90;;;;;;10011582;28;20030;-69
2022/03/07 13:55:50;;;;;;;7.95;7.03;;;10.90;49.50;;;;;;10011955;28;20223;-75
2022/03/07 14:00:41;;;;;;;11.98;7.50;;;11.70;46.10;;;;;;10009315;28;20030;-72
2022/03/07 14:05:49;;;;;;;8.88;6.60;;;11.70;45.20;;;;;;10012962;28;20030;-68
2022/03/07 14:10:41;;;;;;;9.18;7.20;;;11.50;41.70;;;;;;10005463;28;20034;-68
2022/03/07 14:15:43;;;;;;;7.57;6.43;;;11.40;44.00;;;;;;10002674;28;20145;-65
2022/03/07 14:20:36;;;;;;;11.10;6.55;;;11.90;42.20;;;;;;10012105;28;20101;-69
2022/03/07 14:25:27;;;;;;;8.45;6.57;;;12.70;43.40;;;;;;10007759;28;20107;-69
2022/03/07 14:30:18;;;;;;;10.25;7.55;;;12.40;41.80;;;;;;10005339;28;20101;-70
2022/03/07 14:35:10;;;;;;;9.90;7.15;;;12.30;41.10;;;;;;10002304;28;20537;-69
2022/03/07 14:40:02;;;;;;;12.27;6.90;;;12.40;40.00;;;;;;10009391;28;20030;-69
2022/03/07 14:44:53;;;;;;;9.68;7.72;;;13.20;38.90;;;;;;10007393;28;20053;-75
2022/03/07 14:49:45;;;;;;;10.65;7.32;;;14.30;37.80;;;;;;10007655;28;20073;-75
2022/03/07 14:54:37;;;;;;;10.93;7.22;;;14.70;36.60;;;;;;10001534;28;20053;-69
2022/03/07 14:59:28;;;;;;;9.80;7.68;;;15.40;35.30;;;;;;10011273;28;20022;-70
2022/03/07 15:04:19;;;;;;;10.43;6.75;;;16.20;34.50;;;;;;10007852;28;20061;-70
2022/03/07 15:09:10;;;;;;;8.27;6.10;;;16.70;33.60;;;;;;10002905;28;20022;-64
2022/03/07 15:14:01;;;;;;;8.95;6.60;;;17.30;32.80;;;;;;10004697;28;20042;-74
2022/03/07 15:18:51;;;;;;;9.80;6.30;;;17.20;32.10;;;;;;10010067;28;20516;-69
2022/03/07 15:23:46;;;;;;;9.15;7.07;;;17.20;32.10;;;;;;10010659;28;20070;-76
2022/03/07 15:28:36;;;;;;;8.47;6.03;;;17.10;31.70;;;;;;10011856;28;20040;-74
2022/03/07 15:33:33;;;;;;;7.15;5.97;;;17.00;31.40;;;;;;10007560;28;20038;-74
2022/03/07 15:38:24;;;;;;;7.63;6.82;;;17.60;31.00;;;;;;9999368;28;20420;-68
2022/03/07 15:43:15;;;;;;;10.48;6.13;;;17.80;30.60;;;;;;10007746;28;20029;-70
2022/03/07 15:48:06;;;;;;;8.70;6.43;;;17.60;30.70;;;;;;10005429;28;20524;-69
2022/03/07 15:52:56;;;;;;;9.55;6.13;;;17.00;30.60;;;;;;10007973;28;20022;-73
2022/03/07 15:57:53;;;;;;;7.85;6.15;;;16.50;30.70;;;;;;10003290;28;20065;-67
2022/03/07 16:02:44;;;;;;;8.60;6.03;;;16.50;30.80;;;;;;10008569;28;20022;-73
2022/03/07 16:07:36;;;;;;;8.23;5.65;;;16.40;30.90;;;;;;9995217;28;20040;-71
2022/03/07 16:12:28;;;;;;;9.02;6.30;;;15.80;31.10;;;;;;9997467;28;20473;-68
2022/03/07 16:17:21;;;;;;;57.25;34.78;;;15.60;31.80;;;;;;10006173;28;20053;-68
2022/03/07 16:22:11;;;;;;;15.35;8.73;;;15.30;31.50;;;;;;10007436;28;20347;-69
2022/03/07 16:27:02;;;;;;;9.98;6.43;;;15.40;31.60;;;;;;10002977;28;20038;-73
2022/03/07 16:31:53;;;;;;;10.43;7.03;;;14.50;31.80;;;;;;10006942;28;20034;-72
2022/03/07 16:36:43;;;;;;;8.82;5.78;;;10.40;35.30;;;;;;10007634;28;20042;-75
2022/03/07 16:41:34;;;;;;;10.65;5.38;;;8.90;36.90;;;;;;10007019;28;20582;-70
2022/03/07 16:46:27;;;;;;;9.00;5.60;;;8.20;37.40;;;;;;10006394;28;20160;-72
2022/03/07 16:51:23;;;;;;;8.60;5.55;;;7.90;38.00;;;;;;10007247;28;20116;-72
2022/03/07 16:56:14;;;;;;;8.93;4.82;;;7.60;37.70;;;;;;10008839;28;20038;-73
2022/03/07 17:01:05;;;;;;;10.52;5.78;;;7.50;38.10;;;;;;10001307;28;20411;-71
2022/03/07 17:05:56;;;;;;;6.38;4.15;;;7.30;38.10;;;;;;10005671;28;20046;-71
2022/03/07 17:10:47;;;;;;;11.27;5.13;;;7.20;38.30;;;;;;10005018;28;20169;-73
2022/03/07 17:15:38;;;;;;;9.80;6.07;;;7.10;38.60;;;;;;10011487;28;20409;-74
2022/03/07 17:20:29;;;;;;;7.30;5.30;;;7.00;38.60;;;;;;10026932;28;20030;-71
2022/03/07 17:25:20;;;;;;;9.45;5.82;;;6.90;39.00;;;;;;10012103;28;20041;-70
2022/03/07 17:30:12;;;;;;;7.50;5.38;;;6.80;39.20;;;;;;10009375;28;20045;-70
2022/03/07 17:35:04;;;;;;;8.18;5.07;;;6.70;39.30;;;;;;10010145;28;20555;-72
2022/03/07 17:39:55;;;;;;;6.93;5.03;;;6.50;39.70;;;;;;10010276;28;20026;-73
2022/03/07 17:44:46;;;;;;;10.88;5.07;;;6.50;40.00;;;;;;10010644;28;20523;-69
2022/03/07 17:49:37;;;;;;;9.88;5.13;;;6.40;40.00;;;;;;10007790;28;20560;-74
2022/03/07 17:54:28;;;;;;;8.48;4.63;;;6.30;40.30;;;;;;10013536;28;20116;-75
2022/03/07 17:59:19;;;;;;;8.10;5.32;;;6.10;40.70;;;;;;10010148;28;20049;-73
2022/03/07 18:04:10;;;;;;;7.63;5.18;;;6.10;40.50;;;;;;10008514;28;20402;-75
2022/03/07 18:09:01;;;;;;;11.00;6.22;;;6.10;40.60;;;;;;10009967;28;20029;-75
2022/03/07 18:13:59;;;;;;;11.38;6.50;;;5.90;41.40;;;;;;10003463;28;20054;-75
2022/03/07 18:18:50;;;;;;;10.07;6.03;;;5.80;41.60;;;;;;10010087;28;20042;-74
2022/03/07 18:23:41;;;;;;;16.13;7.40;;;5.70;41.70;;;;;;10008721;28;20608;-75
2022/03/07 18:28:32;;;;;;;10.82;6.35;;;5.70;41.50;;;;;;10013749;28;20112;-76
2022/03/07 18:33:23;;;;;;;12.30;6.20;;;5.70;42.00;;;;;;9999069;28;20034;-75
2022/03/07 18:38:13;;;;;;;10.35;5.55;;;5.60;41.70;;;;;;10005249;28;20042;-75
2022/03/07 18:43:06;;;;;;;13.10;5.10;;;5.60;42.10;;;;;;10008403;28;20021;-75
2022/03/07 18:47:57;;;;;;;12.05;5.70;;;5.50;42.40;;;;;;10001726;28;20670;-76
2022/03/07 18:52:53;;;;;;;11.30;6.25;;;5.40;43.10;;;;;;10014331;28;20090;-74
2022/03/07 18:57:46;;;;;;;9.50;5.45;;;5.30;43.30;;;;;;10014670;28;20116;-75
2022/03/07 19:02:37;;;;;;;10.60;6.32;;;5.30;43.00;;;;;;10007601;28;20792;-74
2022/03/07 19:07:28;;;;;;;8.93;5.38;;;5.30;42.80;;;;;;10015270;28;20030;-76
2022/03/07 19:12:19;;;;;;;12.10;6.00;;;5.30;43.20;;;;;;10020716;28;20180;-75
2022/03/07 19:17:10;;;;;;;14.88;7.30;;;5.20;43.50;;;;;;10017789;28;20034;-76
2022/03/07 19:22:01;;;;;;;11.02;5.95;;;5.40;43.70;;;;;;10019343;28;20025;-76
2022/03/07 19:26:52;;;;;;;8.95;5.82;;;5.50;43.40;;;;;;10026991;28;20041;-75
2022/03/07 19:31:43;;;;;;;15.63;5.50;;;5.30;43.70;;;;;;10013082;28;20030;-73
2022/03/07 19:36:33;;;;;;;9.90;5.70;;;5.20;44.00;;;;;;9991779;28;20405;-75
2022/03/07 19:41:30;;;;;;;12.43;5.35;;;5.10;43.80;;;;;;10001615;28;20095;-72
2022/03/07 19:46:21;;;;;;;11.20;5.85;;;5.10;43.60;;;;;;10002344;28;20033;-70
2022/03/07 19:51:12;;;;;;;10.45;5.93;;;5.10;43.40;;;;;;10006472;28;20030;-71
2022/03/07 19:56:03;;;;;;;12.95;6.28;;;5.00;43.50;;;;;;10002736;28;20076;-72
2022/03/07 20:00:54;;;;;;;12.48;5.50;;;4.90;43.50;;;;;;10006840;28;20026;-72
2022/03/07 20:05:55;;;;;;;11.65;6.32;;;4.90;43.70;;;;;;10010930;28;20038;-76
2022/03/07 20:10:46;;;;;;;11.15;6.20;;;4.80;43.60;;;;;;10023608;28;20026;-71
2022/03/07 20:15:36;;;;;;;12.00;5.97;;;4.70;44.00;;;;;;10013178;28;20050;-71
2022/03/07 20:20:28;;;;;;;11.38;5.97;;;4.80;43.90;;;;;;10014671;28;20319;-74
2022/03/07 20:25:19;;;;;;;11.68;6.35;;;4.70;43.70;;;;;;10011451;28;20030;-72
2022/03/07 20:30:11;;;;;;;10.98;6.60;;;4.50;44.50;;;;;;10010833;28;20388;-71
2022/03/07 20:35:03;;;;;;;9.35;6.07;;;4.50;44.20;;;;;;10007337;28;20122;-66
2022/03/07 20:39:54;;;;;;;12.25;5.68;;;4.50;44.10;;;;;;10000542;28;20030;-67
2022/03/07 20:44:46;;;;;;;11.48;7.25;;;4.40;44.20;;;;;;10006460;28;20145;-72
2022/03/07 20:49:40;;;;;;;11.82;6.22;;;4.30;44.50;;;;;;10010519;28;20014;-69
2022/03/07 20:54:31;;;;;;;79.68;34.00;;;4.40;44.40;;;;;;10013290;28;20037;-74
2022/03/07 20:59:21;;;;;;;44.35;20.23;;;4.40;44.30;;;;;;10021158;28;20396;-76
2022/03/07 21:04:13;;;;;;;15.77;7.60;;;4.30;44.30;;;;;;10018491;28;20022;-76
2022/03/07 21:09:04;;;;;;;11.80;6.50;;;4.20;44.50;;;;;;10012516;28;20029;-78
2022/03/07 21:13:55;;;;;;;10.75;6.00;;;4.10;44.70;;;;;;10017513;28;20053;-77
2022/03/07 21:18:46;;;;;;;11.98;5.65;;;4.00;44.90;;;;;;10012194;28;20045;-76
2022/03/07 21:23:37;;;;;;;10.93;6.63;;;4.10;45.40;;;;;;10014528;28;20088;-78
2022/03/07 21:28:28;;;;;;;13.07;5.75;;;4.10;45.50;;;;;;10011869;28;20030;-77
2022/03/07 21:33:18;;;;;;;11.65;6.15;;;4.10;45.30;;;;;;10002849;28;20473;-78
2022/03/07 21:38:09;;;;;;;10.55;5.93;;;4.00;45.30;;;;;;10011721;28;20048;-77
2022/03/07 21:43:00;;;;;;;12.27;6.32;;;3.90;45.10;;;;;;10013161;28;20053;-76
2022/03/07 21:47:51;;;;;;;10.98;6.03;;;3.80;45.40;;;;;;10015754;28;20083;-76
2022/03/07 21:52:42;;;;;;;14.05;6.68;;;3.80;45.80;;;;;;10008935;28;20033;-76
2022/03/07 21:57:34;;;;;;;12.23;5.63;;;3.90;45.60;;;;;;10012531;28;20532;-77
2022/03/07 22:02:25;;;;;;;9.88;6.70;;;4.00;45.70;;;;;;10014533;28;20030;-77
2022/03/07 22:07:19;;;;;;;11.43;6.03;;;3.90;45.50;;;;;;10015760;28;20041;-77
2022/03/07 22:12:10;;;;;;;12.43;6.88;;;3.80;45.80;;;;;;10007802;28;20042;-77
2022/03/07 22:17:00;;;;;;;13.25;7.20;;;3.80;45.70;;;;;;10012823;28;20041;-77
2022/03/07 22:21:51;;;;;;;12.48;6.65;;;3.70;45.70;;;;;;10015921;28;20471;-79
2022/03/07 22:26:42;;;;;;;13.52;6.35;;;3.70;45.80;;;;;;10017642;28;20393;-77
2022/03/07 22:31:36;;;;;;;11.93;6.78;;;3.70;46.10;;;;;;10019048;28;20034;-78
2022/03/07 22:36:27;;;;;;;14.27;7.00;;;3.60;46.20;;;;;;10018052;28;20044;-76
2022/03/07 22:41:18;;;;;;;13.75;6.38;;;3.70;46.30;;;;;;10022687;28;20038;-76
2022/03/07 22:46:12;;;;;;;10.80;6.43;;;3.70;46.20;;;;;;10019546;28;20610;-76
2022/03/07 22:51:02;;;;;;;12.55;6.03;;;3.80;46.30;;;;;;10019032;28;20018;-76
2022/03/07 22:55:54;;;;;;;11.88;5.93;;;3.80;46.30;;;;;;10012964;28;20295;-76
2022/03/07 23:00:44;;;;;;;11.02;5.68;;;3.80;46.30;;;;;;10017143;28;20025;-76
2022/03/07 23:10:46;;;;;;;9.02;4.80;;;3.80;46.20;;;;;;10000491;28;20033;-77
2022/03/07 23:15:37;;;;;;;12.35;6.40;;;3.80;46.30;;;;;;10013629;28;20042;-76
2022/03/07 23:20:27;;;;;;;12.23;5.68;;;3.80;46.40;;;;;;10008557;28;20111;-76
2022/03/07 23:25:18;;;;;;;11.60;6.05;;;3.80;46.20;;;;;;10008820;28;20076;-76
2022/03/07 23:30:12;;;;;;;11.50;5.82;;;3.70;46.30;;;;;;10010591;28;20217;-77
2022/03/07 23:35:04;;;;;;;12.90;6.47;;;3.70;46.20;;;;;;10012100;28;20535;-76
2022/03/07 23:39:56;;;;;;;13.32;6.53;;;3.70;46.30;;;;;;9997784;28;20033;-75
2022/03/07 23:44:47;;;;;;;11.43;6.50;;;3.60;46.40;;;;;;10007118;28;20053;-77
2022/03/07 23:49:38;;;;;;;10.43;5.78;;;3.60;46.40;;;;;;10006322;28;20112;-76
2022/03/07 23:54:28;;;;;;;9.73;6.30;;;3.50;46.30;;;;;;10008863;28;20034;-76
2022/03/07 23:59:19;;;;;;;10.48;6.15;;;3.50;46.40;;;;;;10011769;28;20046;-77
